Time;durP1;ratioP1;P1;durP2;ratioP2;P2;SDS_P1;SDS_P2;PMS_P1;PMS_P2;Temp;Humidity;BMP_temperature;BMP_pressure;BME280_temperature;BME280_humidity;BME280_pressure;Samples;Min_cycle;Max_cycle;Signal;HPM_P1;HPM_P2
2023/05/15 00:01:42;;;;;;;15.35;10.02;;;435.30;2355.20;;;;;;4986977;28;20102;-86
2023/05/15 00:04:15;;;;;;;15.93;10.20;;;435.30;2355.20;;;;;;4987513;28;20066;-87
2023/05/15 00:06:42;;;;;;;13.77;10.03;;;435.30;2355.20;;;;;;4974256;28;20170;-87
2023/05/15 00:09:36;;;;;;;14.30;10.85;;;435.20;2355.20;;;;;;4987841;28;20085;-88
2023/05/15 00:12:04;;;;;;;14.07;8.50;;;435.20;2355.20;;;;;;5007697;28;20445;-87
2023/05/15 00:14:57;;;;;;;13.82;7.25;;;435.20;2355.20;;;;;;4983083;28;20034;-86
2023/05/15 00:17:34;;;;;;;;;;;435.20;2355.20;;;;;;5004539;28;20105;-87
2023/05/15 00:20:17;;;;;;;12.30;6.40;;;435.20;2355.20;;;;;;4979167;28;19906;-86
2023/05/15 00:22:54;;;;;;;13.15;7.78;;;410.50;2355.20;;;;;;4968583;29;20027;-86
2023/05/15 00:25:23;;;;;;;12.00;7.28;;;435.20;2355.20;;;;;;4963704;29;20611;-86
2023/05/15 00:27:55;;;;;;;23.75;14.60;;;410.50;2355.20;;;;;;4967623;28;20031;-89
2023/05/15 00:30:56;;;;;;;;;;;435.20;2355.20;;;;;;4973863;28;20035;-87
2023/05/15 00:33:38;;;;;;;15.70;8.88;;;410.50;2355.20;;;;;;4967131;29;19918;-86
2023/05/15 00:36:24;;;;;;;17.92;9.95;;;410.50;2355.20;;;;;;4964905;28;20114;-88
2023/05/15 00:38:50;;;;;;;12.52;7.47;;;410.50;2355.20;;;;;;4929045;29;20036;-83
2023/05/15 00:41:17;;;;;;;16.38;7.60;;;410.50;2355.20;;;;;;4946202;29;20027;-83
2023/05/15 00:43:45;;;;;;;13.88;7.18;;;410.50;2355.20;;;;;;4946692;29;20019;-83
2023/05/15 00:46:12;;;;;;;10.52;7.25;;;435.20;2355.20;;;;;;4978276;28;20074;-83
2023/05/15 00:48:38;;;;;;;15.38;7.10;;;410.50;2355.20;;;;;;4999074;28;20035;-85
2023/05/15 00:51:04;;;;;;;11.35;6.35;;;410.50;2355.20;;;;;;4985501;28;20037;-85
2023/05/15 00:53:30;;;;;;;10.18;6.35;;;410.50;2355.20;;;;;;4999266;28;20034;-86
2023/05/15 00:55:58;;;;;;;8.07;5.95;;;410.50;2355.20;;;;;;5000810;28;20050;-87
2023/05/15 00:58:27;;;;;;;12.32;7.03;;;410.50;2355.20;;;;;;5002121;28;20049;-84
2023/05/15 01:00:53;;;;;;;9.80;6.70;;;410.50;2355.20;;;;;;5004785;28;20019;-84
2023/05/15 01:03:20;;;;;;;9.43;6.28;;;410.50;2355.20;;;;;;5037748;28;20499;-84
2023/05/15 01:05:46;;;;;;;11.48;6.50;;;410.40;2355.20;;;;;;5082421;28;20024;-82
2023/05/15 01:08:25;;;;;;;10.98;6.07;;;410.50;2355.20;;;;;;5098597;28;20028;-83
2023/05/15 01:10:51;;;;;;;16.00;5.93;;;410.50;2355.20;;;;;;5118938;28;20024;-84
2023/05/15 01:13:20;;;;;;;8.73;5.40;;;410.50;2355.20;;;;;;5104053;28;20032;-83
2023/05/15 01:15:49;;;;;;;13.30;6.38;;;410.50;2355.20;;;;;;5118318;28;20120;-85
2023/05/15 01:18:14;;;;;;;8.80;5.93;;;410.50;2355.20;;;;;;5115306;28;20084;-87
2023/05/15 01:21:04;;;;;;;9.05;5.90;;;410.50;2355.20;;;;;;5099086;28;20056;-84
2023/05/15 01:23:47;;;;;;;12.30;6.18;;;410.50;2355.20;;;;;;5096724;28;20088;-84
2023/05/15 01:26:20;;;;;;;9.52;6.18;;;410.50;2355.20;;;;;;5097471;28;20046;-84
2023/05/15 01:28:54;;;;;;;9.20;6.40;;;410.50;2355.20;;;;;;5096551;28;20047;-84
2023/05/15 01:31:22;;;;;;;14.15;6.13;;;410.50;2355.20;;;;;;5081630;28;20481;-84
2023/05/15 01:33:55;;;;;;;11.52;6.22;;;410.50;2355.20;;;;;;5085336;28;20031;-85
2023/05/15 01:36:32;;;;;;;9.90;6.45;;;410.50;2355.20;;;;;;5101293;28;20048;-85
2023/05/15 01:39:01;;;;;;;9.02;5.95;;;410.50;2355.20;;;;;;5101909;28;20020;-85
2023/05/15 01:41:44;;;;;;;13.15;5.78;;;410.50;2355.20;;;;;;5118861;28;20024;-82
2023/05/15 01:44:16;;;;;;;7.25;5.78;;;410.50;2355.20;;;;;;5109119;28;20092;-82
2023/05/15 01:46:44;;;;;;;13.03;6.63;;;410.50;2355.20;;;;;;5119732;28;20060;-84
2023/05/15 01:49:15;;;;;;;7.53;5.57;;;410.40;2355.20;;;;;;5118064;28;20027;-82
2023/05/15 01:51:43;;;;;;;;;;;410.50;2355.20;;;;;;5103850;28;20034;-84
2023/05/15 01:54:15;;;;;;;8.02;5.68;;;410.50;2355.20;;;;;;5101714;28;19904;-83
2023/05/15 01:56:44;;;;;;;10.13;5.57;;;410.50;2355.20;;;;;;5118321;28;20020;-84
2023/05/15 01:59:13;;;;;;;9.52;5.88;;;410.50;2355.20;;;;;;5102007;28;20028;-83
2023/05/15 02:01:40;;;;;;;8.25;5.68;;;410.50;2355.20;;;;;;5091757;28;20043;-85
2023/05/15 02:04:07;;;;;;;8.65;6.00;;;410.40;2355.20;;;;;;5100924;28;20020;-85
2023/05/15 02:06:33;;;;;;;9.52;5.18;;;410.50;2355.20;;;;;;5102697;28;20081;-85
2023/05/15 02:09:02;;;;;;;9.32;6.55;;;410.50;2355.20;;;;;;5098422;28;20048;-86
2023/05/15 02:11:28;;;;;;;8.63;5.80;;;410.40;2355.20;;;;;;5099559;28;20024;-86
2023/05/15 02:13:56;;;;;;;10.02;5.90;;;410.50;2355.20;;;;;;5102365;28;20024;-85
2023/05/15 02:16:22;;;;;;;9.88;6.18;;;410.40;2355.20;;;;;;5101649;28;20039;-85
2023/05/15 02:18:48;;;;;;;14.05;6.30;;;410.30;2355.20;;;;;;5102000;28;20024;-85
2023/05/15 02:21:15;;;;;;;8.43;5.95;;;410.40;2355.20;;;;;;5118599;28;20046;-85
2023/05/15 02:23:40;;;;;;;9.20;6.43;;;410.40;2355.20;;;;;;5117669;28;20020;-84
2023/05/15 02:26:38;;;;;;;13.23;6.93;;;410.40;2355.20;;;;;;5118120;28;20028;-85
2023/05/15 02:29:26;;;;;;;9.05;6.20;;;410.30;2355.20;;;;;;5117166;28;20056;-86
2023/05/15 02:32:12;;;;;;;10.18;6.75;;;410.20;2355.20;;;;;;5118806;28;20114;-86
2023/05/15 02:35:06;;;;;;;13.23;6.78;;;410.20;2355.20;;;;;;5099645;28;21257;-86
2023/05/15 02:37:36;;;;;;;9.07;6.97;;;410.20;2355.20;;;;;;5102474;28;20054;-86
2023/05/15 02:40:06;;;;;;;11.85;7.60;;;410.20;2355.20;;;;;;5100592;28;20509;-86
2023/05/15 02:42:32;;;;;;;12.50;7.38;;;410.10;2355.20;;;;;;5119181;28;20020;-86
2023/05/15 02:45:00;;;;;;;11.25;7.43;;;410.20;2355.20;;;;;;5118277;28;20024;-85
2023/05/15 02:47:31;;;;;;;10.95;7.20;;;410.10;2355.20;;;;;;5102939;28;20081;-86
2023/05/15 02:50:56;;;;;;;12.82;7.55;;;410.00;2355.20;;;;;;5098683;28;20035;-87
2023/05/15 02:53:32;;;;;;;13.63;7.03;;;410.00;2355.20;;;;;;5099317;28;20048;-87
2023/05/15 02:56:35;;;;;;;9.90;6.63;;;410.00;2355.20;;;;;;5103811;28;20123;-86
2023/05/15 02:59:06;;;;;;;8.73;6.68;;;410.00;2355.20;;;;;;5100872;28;20067;-87
2023/05/15 03:01:48;;;;;;;11.32;7.22;;;410.00;2355.20;;;;;;5046577;28;20072;-87
2023/05/15 03:04:18;;;;;;;15.50;7.95;;;409.90;2355.20;;;;;;4991067;28;20033;-87
2023/05/15 03:06:58;;;;;;;9.30;7.70;;;409.80;2355.20;;;;;;5041001;28;20100;-87
2023/05/15 03:09:24;;;;;;;13.88;8.07;;;409.80;2355.20;;;;;;5027011;28;20029;-87
2023/05/15 03:11:53;;;;;;;12.05;7.75;;;409.80;2355.20;;;;;;5059793;28;20037;-86
2023/05/15 03:14:26;;;;;;;10.40;7.53;;;409.80;2355.20;;;;;;5059731;28;20037;-87
2023/05/15 03:16:52;;;;;;;;;;;409.70;2355.20;;;;;;4995531;28;20044;-86
2023/05/15 03:19:36;;;;;;;9.23;6.90;;;409.70;2355.20;;;;;;5059896;28;19908;-86
2023/05/15 03:22:02;;;;;;;11.05;7.63;;;409.70;2355.20;;;;;;5038117;28;20039;-86
2023/05/15 03:24:28;;;;;;;10.20;6.22;;;409.80;2355.20;;;;;;5029192;28;20052;-87
2023/05/15 03:26:58;;;;;;;12.45;8.20;;;409.80;2355.20;;;;;;5041502;28;20060;-87
2023/05/15 03:29:25;;;;;;;10.80;7.43;;;409.80;2355.20;;;;;;5029116;28;20037;-86
2023/05/15 03:31:51;;;;;;;11.73;7.65;;;409.80;2355.20;;;;;;5053903;28;20036;-87
2023/05/15 03:34:23;;;;;;;9.70;8.02;;;409.70;2355.20;;;;;;5061824;28;20590;-86
2023/05/15 03:37:05;;;;;;;10.95;7.80;;;409.70;2355.20;;;;;;5068144;28;20042;-87
2023/05/15 03:39:51;;;;;;;17.85;11.18;;;409.70;2355.20;;;;;;5084095;28;20050;-87
2023/05/15 03:42:22;;;;;;;18.63;13.77;;;409.80;2355.20;;;;;;5081986;28;20032;-86
2023/05/15 03:45:45;;;;;;;30.63;17.57;;;409.80;2355.20;;;;;;5047399;28;20029;-87
2023/05/15 03:48:51;;;;;;;17.42;11.82;;;409.70;2355.20;;;;;;5058222;28;20259;-87
2023/05/15 03:51:33;;;;;;;14.40;8.68;;;409.60;2355.20;;;;;;4965962;29;20054;-88
2023/05/15 03:54:19;;;;;;;10.00;7.72;;;384.90;2329.60;;;;;;4910841;29;20059;-87
2023/05/15 03:57:03;;;;;;;10.88;8.15;;;384.90;2329.60;;;;;;4861766;29;20065;-87
2023/05/15 03:59:51;;;;;;;10.88;8.30;;;384.90;2329.60;;;;;;4877107;29;20141;-86
2023/05/15 04:02:46;;;;;;;15.48;9.23;;;409.60;2355.20;;;;;;4876614;29;20033;-87
2023/05/15 04:05:26;;;;;;;11.57;8.32;;;409.60;2355.20;;;;;;4861003;29;20032;-87
2023/05/15 04:07:59;;;;;;;11.70;8.50;;;409.60;2355.20;;;;;;4877073;29;20131;-87
2023/05/15 04:10:58;;;;;;;12.98;9.15;;;384.90;2329.60;;;;;;4893282;29;20365;-87
2023/05/15 04:13:48;;;;;;;14.43;8.70;;;409.60;2355.20;;;;;;4880165;29;20038;-87
2023/05/15 04:16:50;;;;;;;13.18;8.77;;;409.60;2355.20;;;;;;4859003;29;20032;-87
2023/05/15 04:20:25;;;;;;;11.48;9.13;;;409.60;2355.20;;;;;;4883660;29;20037;-87
2023/05/15 04:22:59;;;;;;;13.90;9.68;;;409.60;2355.20;;;;;;4920256;29;20032;-87
2023/05/15 04:26:35;;;;;;;20.77;15.07;;;409.60;2355.20;;;;;;4946054;29;20036;-86
2023/05/15 04:30:12;;;;;;;32.88;24.05;;;409.60;2355.20;;;;;;4947464;29;20031;-85
2023/05/15 04:33:06;;;;;;;20.40;13.82;;;409.60;2355.20;;;;;;4946176;29;20080;-87
2023/05/15 04:38:43;;;;;;;16.73;12.68;;;384.90;2329.60;;;;;;4907068;29;20005;-87
2023/05/15 04:41:10;;;;;;;14.02;11.15;;;384.90;2329.60;;;;;;4893406;29;20143;-87
2023/05/15 04:44:22;;;;;;;16.52;12.90;;;384.90;2329.60;;;;;;4917393;29;20603;-88
2023/05/15 04:50:56;;;;;;;17.88;12.13;;;384.90;2329.60;;;;;;4932537;29;20071;-87
2023/05/15 04:53:43;;;;;;;19.02;12.45;;;409.60;2355.20;;;;;;4887723;29;20506;-88
2023/05/15 04:57:03;;;;;;;17.80;12.63;;;384.90;2329.60;;;;;;4873767;29;20086;-88
2023/05/15 05:00:31;;;;;;;16.80;12.55;;;384.90;2329.60;;;;;;4893556;29;20032;-88
2023/05/15 05:03:41;;;;;;;17.17;13.98;;;384.90;2329.60;;;;;;4892974;29;20029;-88
2023/05/15 05:06:55;;;;;;;21.80;13.80;;;384.90;2329.60;;;;;;4876964;29;20520;-88
2023/05/15 05:09:41;;;;;;;15.07;10.50;;;384.90;2329.60;;;;;;4829783;29;20042;-87
2023/05/15 05:12:08;;;;;;;18.05;11.88;;;384.90;2329.60;;;;;;4836561;29;20594;-86
2023/05/15 05:14:55;;;;;;;18.08;13.63;;;384.90;2329.60;;;;;;4838758;29;20045;-87
2023/05/15 05:17:25;;;;;;;16.88;12.68;;;384.90;2329.60;;;;;;4834215;29;20088;-86
2023/05/15 05:19:58;;;;;;;15.80;12.52;;;384.90;2329.60;;;;;;4820257;29;20039;-88
2023/05/15 05:22:24;;;;;;;13.27;11.05;;;384.90;2329.60;;;;;;4836226;29;20030;-87
2023/05/15 05:25:27;;;;;;;16.98;11.38;;;384.80;2329.60;;;;;;4836691;29;20038;-88
2023/05/15 05:32:36;;;;;;;17.70;12.00;;;384.90;2329.60;;;;;;4896131;29;20389;-89
2023/05/15 05:36:02;;;;;;;17.25;11.70;;;384.80;2329.60;;;;;;4892886;29;20156;-88
2023/05/15 05:39:38;;;;;;;24.05;10.85;;;384.80;2329.60;;;;;;4866836;29;20053;-88
2023/05/15 05:42:12;;;;;;;12.95;10.13;;;384.80;2329.60;;;;;;4877163;29;20545;-80
2023/05/15 05:44:38;;;;;;;15.23;10.60;;;384.90;2329.60;;;;;;4939493;29;20072;-86
2023/05/15 05:47:04;;;;;;;16.10;11.18;;;384.90;2329.60;;;;;;4936015;29;20031;-87
2023/05/15 05:49:30;;;;;;;14.27;10.00;;;384.90;2329.60;;;;;;4927746;29;20035;-87
2023/05/15 05:51:56;;;;;;;18.05;12.13;;;384.90;2329.60;;;;;;4958668;29;20040;-86
2023/05/15 05:54:22;;;;;;;17.27;12.05;;;409.60;2355.20;;;;;;4997527;28;20034;-87
2023/05/15 05:56:48;;;;;;;21.10;13.73;;;409.60;2355.20;;;;;;5001223;28;20036;-87
2023/05/15 05:59:14;;;;;;;16.98;13.20;;;409.70;2355.20;;;;;;5016642;28;20030;-86
2023/05/15 06:01:40;;;;;;;16.08;14.20;;;409.70;2355.20;;;;;;5003522;28;20029;-86
2023/05/15 06:04:06;;;;;;;16.17;14.43;;;409.80;2355.20;;;;;;5020726;28;20030;-86
2023/05/15 06:06:33;;;;;;;19.48;14.02;;;409.80;2355.20;;;;;;4993096;28;20089;-86
2023/05/15 06:08:59;;;;;;;16.77;12.98;;;409.80;2355.20;;;;;;4985240;28;20117;-86
2023/05/15 06:11:26;;;;;;;17.17;13.93;;;409.80;2355.20;;;;;;4983854;28;20034;-87
2023/05/15 06:13:53;;;;;;;23.35;16.85;;;409.80;2355.20;;;;;;4984406;28;20026;-86
2023/05/15 06:16:19;;;;;;;28.58;19.05;;;409.80;2355.20;;;;;;5000843;28;20548;-86
2023/05/15 06:18:44;;;;;;;28.77;19.48;;;409.70;2355.20;;;;;;5029573;28;20030;-85
2023/05/15 06:21:10;;;;;;;22.52;16.33;;;409.80;2355.20;;;;;;5025370;28;20037;-86
2023/05/15 06:23:36;;;;;;;23.02;16.52;;;409.80;2355.20;;;;;;5023009;28;20022;-86
2023/05/15 06:26:03;;;;;;;20.70;17.27;;;409.80;2355.20;;;;;;5042114;28;20529;-86
2023/05/15 06:28:29;;;;;;;22.95;18.25;;;409.80;2355.20;;;;;;5040703;28;20028;-85
2023/05/15 06:30:55;;;;;;;21.35;18.10;;;409.90;2355.20;;;;;;5040395;28;20032;-87
2023/05/15 06:33:21;;;;;;;24.50;16.38;;;410.00;2355.20;;;;;;5082933;28;20035;-87
2023/05/15 06:35:47;;;;;;;18.92;13.23;;;410.00;2355.20;;;;;;5084727;28;20037;-86
2023/05/15 06:38:13;;;;;;;22.40;15.63;;;410.00;2355.20;;;;;;5072205;28;20068;-87
2023/05/15 06:40:38;;;;;;;23.88;16.13;;;410.20;2355.20;;;;;;5105223;28;20024;-87
2023/05/15 06:43:06;;;;;;;21.40;15.27;;;410.00;2355.20;;;;;;5104477;28;20034;-86
2023/05/15 06:45:31;;;;;;;24.40;16.92;;;410.00;2355.20;;;;;;5086510;28;20388;-87
2023/05/15 06:48:03;;;;;;;21.15;13.52;;;410.00;2355.20;;;;;;5084975;28;20092;-87
2023/05/15 06:50:31;;;;;;;18.70;11.63;;;410.10;2355.20;;;;;;5081024;28;20104;-87
2023/05/15 06:53:00;;;;;;;42.45;28.58;;;410.20;2355.20;;;;;;5081395;28;20024;-86
2023/05/15 06:55:26;;;;;;;24.08;18.20;;;410.20;2355.20;;;;;;5095355;28;20032;-86
2023/05/15 06:57:52;;;;;;;21.50;14.98;;;410.20;2355.20;;;;;;5066434;28;20032;-87
2023/05/15 07:00:19;;;;;;;20.23;15.52;;;410.20;2355.20;;;;;;5079020;28;20035;-87
2023/05/15 07:02:45;;;;;;;17.75;15.02;;;410.20;2355.20;;;;;;5064054;28;20116;-87
2023/05/15 07:05:10;;;;;;;18.35;13.27;;;410.20;2355.20;;;;;;5078041;28;20037;-87
2023/05/15 07:07:36;;;;;;;20.10;14.32;;;410.20;2355.20;;;;;;5082009;28;20490;-86
2023/05/15 07:10:03;;;;;;;19.55;14.18;;;410.30;2355.20;;;;;;5098269;28;20167;-86
2023/05/15 07:12:31;;;;;;;19.83;13.95;;;410.20;2355.20;;;;;;5097879;28;20020;-84
2023/05/15 07:14:57;;;;;;;20.98;16.35;;;410.30;2355.20;;;;;;5095433;28;20496;-85
2023/05/15 07:17:23;;;;;;;19.75;15.23;;;410.30;2355.20;;;;;;5078943;28;20163;-83
2023/05/15 07:19:49;;;;;;;19.00;16.52;;;410.40;2355.20;;;;;;5078564;28;20060;-82
2023/05/15 07:22:15;;;;;;;18.08;13.60;;;410.40;2355.20;;;;;;5103019;28;20035;-84
2023/05/15 07:24:41;;;;;;;19.23;14.43;;;410.50;2355.20;;;;;;5104309;28;20024;-84
2023/05/15 07:27:06;;;;;;;17.88;12.32;;;410.50;2355.20;;;;;;5106614;28;20583;-85
2023/05/15 07:29:32;;;;;;;17.42;13.13;;;410.50;2355.20;;;;;;5107336;28;20053;-85
2023/05/15 07:32:00;;;;;;;19.70;14.30;;;435.20;2355.20;;;;;;5105825;28;20027;-88
2023/05/15 07:34:26;;;;;;;23.20;17.00;;;435.20;2355.20;;;;;;5108375;28;20023;-85
2023/05/15 07:36:52;;;;;;;30.40;24.25;;;435.20;2355.20;;;;;;5106694;28;20024;-85
2023/05/15 07:39:18;;;;;;;26.77;21.15;;;435.30;2355.20;;;;;;5106956;28;20043;-83
2023/05/15 07:41:45;;;;;;;25.40;20.00;;;435.30;2355.20;;;;;;5106860;28;20020;-86
2023/05/15 07:44:11;;;;;;;28.77;20.23;;;435.30;2355.20;;;;;;5106648;28;20099;-85
2023/05/15 07:46:37;;;;;;;30.38;22.38;;;435.30;2355.20;;;;;;5106638;28;20051;-85
2023/05/15 07:49:03;;;;;;;22.90;18.17;;;435.30;2355.20;;;;;;5106825;28;20019;-85
2023/05/15 07:51:29;;;;;;;23.08;16.58;;;435.30;2355.20;;;;;;5107021;28;20053;-84
2023/05/15 07:53:55;;;;;;;19.77;15.05;;;435.30;2355.20;;;;;;5105086;28;20035;-86
2023/05/15 07:56:22;;;;;;;20.15;13.82;;;435.30;2355.20;;;;;;5106919;28;20027;-85
2023/05/15 07:58:48;;;;;;;18.42;13.63;;;435.30;2355.20;;;;;;5106217;28;20383;-86
2023/05/15 08:01:16;;;;;;;17.02;13.43;;;435.30;2355.20;;;;;;5089657;28;20031;-85
2023/05/15 08:03:42;;;;;;;18.77;13.10;;;435.30;2355.20;;;;;;5084879;28;20121;-85
2023/05/15 08:06:11;;;;;;;17.23;11.50;;;435.30;2355.20;;;;;;5085306;28;20066;-84
2023/05/15 08:08:41;;;;;;;16.80;11.65;;;435.20;2355.20;;;;;;5084509;28;20024;-86
2023/05/15 08:11:10;;;;;;;14.45;11.10;;;435.20;2355.20;;;;;;5086360;28;20028;-89
2023/05/15 08:13:36;;;;;;;17.60;11.10;;;435.20;2355.20;;;;;;5082617;28;20024;-82
2023/05/15 08:16:04;;;;;;;17.98;12.65;;;435.20;2355.20;;;;;;5086336;28;20028;-87
2023/05/15 08:18:30;;;;;;;22.70;15.18;;;410.30;2355.20;;;;;;5053986;28;20029;-83
2023/05/15 08:21:10;;;;;;;24.52;13.57;;;435.30;2355.20;;;;;;5048009;28;20055;-88
2023/05/15 08:23:38;;;;;;;20.42;12.57;;;435.30;2355.20;;;;;;4993960;28;20029;-88
2023/05/15 08:26:04;;;;;;;21.17;13.95;;;435.30;2355.20;;;;;;5047667;28;20120;-88
2023/05/15 08:28:32;;;;;;;23.95;12.52;;;435.40;2355.20;;;;;;5034199;28;20061;-87
2023/05/15 08:31:32;;;;;;;18.45;13.15;;;435.50;2355.20;;;;;;5009065;28;20044;-87
2023/05/15 08:33:59;;;;;;;23.58;14.35;;;435.50;2355.20;;;;;;4945839;29;20562;-89
2023/05/15 08:36:25;;;;;;;22.42;13.65;;;435.50;2355.20;;;;;;4911260;29;20072;-83
2023/05/15 08:38:51;;;;;;;17.50;14.25;;;435.50;2355.20;;;;;;4925177;29;20044;-84
2023/05/15 08:41:30;;;;;;;18.75;13.73;;;435.50;2355.20;;;;;;4926561;29;20103;-83
2023/05/15 08:43:57;;;;;;;15.48;11.65;;;435.60;2355.20;;;;;;4922400;29;20038;-84
2023/05/15 08:46:24;;;;;;;15.90;12.35;;;436.10;2355.20;;;;;;4917275;29;20040;-87
2023/05/15 08:48:53;;;;;;;18.60;13.25;;;435.60;2355.20;;;;;;4927882;29;20061;-84
2023/05/15 08:51:20;;;;;;;21.55;14.90;;;435.90;2355.20;;;;;;4942776;29;20047;-83
2023/05/15 08:53:46;;;;;;;23.40;14.43;;;436.00;2355.20;;;;;;4931614;29;20095;-82
2023/05/15 08:56:12;;;;;;;18.35;13.20;;;460.80;2380.80;;;;;;4973168;28;20059;-83
2023/05/15 08:58:38;;;;;;;19.73;13.63;;;460.90;2380.80;;;;;;4975109;28;20102;-84
2023/05/15 09:01:05;;;;;;;26.88;15.40;;;460.90;2380.80;;;;;;4977950;28;20065;-82
2023/05/15 09:03:31;;;;;;;20.58;11.25;;;460.90;2380.80;;;;;;4959064;29;20062;-83
2023/05/15 09:05:57;;;;;;;21.52;12.35;;;460.90;2380.80;;;;;;4994791;28;20466;-83
2023/05/15 09:08:27;;;;;;;19.52;12.60;;;461.00;2380.80;;;;;;5011487;28;20018;-83
2023/05/15 09:10:55;;;;;;;19.48;12.75;;;461.00;2380.80;;;;;;5014252;28;20022;-85
2023/05/15 09:13:21;;;;;;;14.98;11.00;;;461.00;2380.80;;;;;;5059267;28;20107;-84
2023/05/15 09:15:47;;;;;;;21.00;13.27;;;461.10;2380.80;;;;;;5044723;28;20067;-85
2023/05/15 09:18:14;;;;;;;16.15;12.20;;;461.10;2380.80;;;;;;5040317;28;20022;-86
2023/05/15 09:20:40;;;;;;;24.67;15.23;;;461.20;2380.80;;;;;;5041220;28;20596;-84
2023/05/15 09:23:21;;;;;;;22.60;15.50;;;461.20;2380.80;;;;;;5050718;28;20043;-87
2023/05/15 09:25:52;;;;;;;19.48;12.80;;;461.30;2380.80;;;;;;5106136;28;20027;-84
2023/05/15 09:28:27;;;;;;;24.60;13.30;;;461.30;2380.80;;;;;;5089718;28;20098;-85
2023/05/15 09:31:00;;;;;;;21.13;11.68;;;461.40;2380.80;;;;;;5107178;28;20024;-88
2023/05/15 09:33:33;;;;;;;20.38;10.82;;;461.40;2380.80;;;;;;5117700;28;20028;-89
2023/05/15 09:36:00;;;;;;;19.85;11.32;;;461.50;2380.80;;;;;;5108628;28;20023;-85
2023/05/15 09:38:26;;;;;;;19.80;11.43;;;461.50;2380.80;;;;;;5099259;28;20043;-86
2023/05/15 09:41:04;;;;;;;16.02;10.25;;;461.50;2380.80;;;;;;5087382;28;20027;-85
2023/05/15 09:43:34;;;;;;;19.88;11.35;;;461.60;2380.80;;;;;;5085707;28;20244;-86
2023/05/15 09:46:00;;;;;;;17.50;10.73;;;461.60;2380.80;;;;;;5088741;28;20020;-89
2023/05/15 09:48:28;;;;;;;23.35;10.85;;;461.70;2380.80;;;;;;5085550;28;20041;-85
2023/05/15 09:50:55;;;;;;;17.92;10.70;;;461.70;2380.80;;;;;;5065716;28;20047;-86
2023/05/15 09:53:21;;;;;;;20.38;10.50;;;486.40;2380.80;;;;;;5064306;28;20091;-83
2023/05/15 09:55:48;;;;;;;19.50;11.27;;;486.40;2380.80;;;;;;5079717;28;20035;-80
2023/05/15 09:58:16;;;;;;;16.17;11.07;;;486.40;2380.80;;;;;;5076958;28;20048;-79
2023/05/15 10:00:43;;;;;;;17.85;10.82;;;486.40;2380.80;;;;;;5077937;28;20062;-82
2023/05/15 10:03:10;;;;;;;24.77;10.63;;;486.40;2380.80;;;;;;5078925;28;20016;-80
2023/05/15 10:05:36;;;;;;;23.20;13.20;;;486.40;2380.80;;;;;;5077557;28;20115;-79
2023/05/15 10:08:02;;;;;;;26.90;11.40;;;486.50;2380.80;;;;;;5094205;28;20027;-78
2023/05/15 10:10:29;;;;;;;17.17;10.15;;;486.60;2380.80;;;;;;5077646;28;20119;-79
2023/05/15 10:12:58;;;;;;;17.45;10.98;;;486.70;2380.80;;;;;;5076439;28;20028;-79
2023/05/15 10:15:24;;;;;;;17.08;10.98;;;486.70;2380.80;;;;;;5077354;28;20051;-79
2023/05/15 10:17:52;;;;;;;14.63;10.45;;;486.80;2380.80;;;;;;5075698;28;20028;-79
2023/05/15 10:20:19;;;;;;;22.73;13.43;;;486.80;2380.80;;;;;;5079122;28;20025;-79
2023/05/15 10:22:49;;;;;;;24.38;12.25;;;486.80;2380.80;;;;;;5078036;28;20468;-81
2023/05/15 10:25:17;;;;;;;15.13;10.73;;;486.90;2380.80;;;;;;5076748;28;20086;-79
2023/05/15 10:27:45;;;;;;;16.02;9.77;;;487.00;2380.80;;;;;;5077067;28;20474;-79
2023/05/15 10:30:12;;;;;;;19.65;9.50;;;487.10;2380.80;;;;;;5077434;28;20091;-79
2023/05/15 10:32:40;;;;;;;14.40;9.93;;;487.20;2380.80;;;;;;5077133;28;20024;-79
2023/05/15 10:35:09;;;;;;;16.10;10.05;;;487.30;2380.80;;;;;;5077733;28;20047;-79
2023/05/15 10:37:35;;;;;;;15.57;8.90;;;512.00;2380.80;;;;;;5078953;28;20024;-79
2023/05/15 10:40:02;;;;;;;16.90;8.73;;;512.10;2380.80;;;;;;5117324;28;20448;-79
2023/05/15 10:42:29;;;;;;;13.82;8.93;;;512.20;2380.80;;;;;;5119646;28;20034;-79
2023/05/15 10:44:58;;;;;;;14.95;9.43;;;512.20;2380.80;;;;;;5101410;28;20467;-80
2023/05/15 10:47:29;;;;;;;16.80;9.70;;;512.30;2380.80;;;;;;5119209;28;20024;-79
2023/05/15 10:49:56;;;;;;;18.17;9.07;;;512.30;2380.80;;;;;;5100755;28;20023;-80
2023/05/15 10:52:22;;;;;;;17.35;9.65;;;512.50;2380.80;;;;;;5103199;28;20019;-80
2023/05/15 10:54:48;;;;;;;15.48;10.10;;;512.60;2380.80;;;;;;5112959;28;20019;-83
2023/05/15 10:57:15;;;;;;;14.73;10.43;;;512.80;2380.80;;;;;;5115176;28;20024;-82
2023/05/15 10:59:41;;;;;;;14.75;9.23;;;512.90;2380.80;;;;;;5064930;28;20044;-87
2023/05/15 11:02:30;;;;;;;15.00;10.07;;;537.80;2406.40;;;;;;5072365;28;20150;-87
2023/05/15 11:05:00;;;;;;;16.55;9.23;;;537.90;2406.40;;;;;;5054108;28;20515;-87
2023/05/15 11:07:27;;;;;;;14.35;8.88;;;538.10;2406.40;;;;;;5054538;28;20074;-85
2023/05/15 11:09:54;;;;;;;15.85;8.05;;;538.50;2406.40;;;;;;5072097;28;20033;-87
2023/05/15 11:12:21;;;;;;;18.48;8.43;;;538.50;2406.40;;;;;;5071042;28;20062;-88
2023/05/15 11:14:56;;;;;;;19.00;8.38;;;563.30;2432.00;;;;;;5038053;28;20067;-88
2023/05/15 11:17:25;;;;;;;16.30;9.05;;;563.50;2432.00;;;;;;5034355;28;20040;-87
2023/05/15 11:19:51;;;;;;;15.70;7.82;;;563.60;2432.00;;;;;;5052079;28;20033;-87
2023/05/15 11:22:31;;;;;;;13.13;7.72;;;563.70;2432.00;;;;;;5071696;28;20025;-88
2023/05/15 11:25:08;;;;;;;18.13;8.25;;;563.80;2432.00;;;;;;5071533;28;20043;-86
2023/05/15 11:27:46;;;;;;;13.18;7.55;;;564.10;2432.00;;;;;;5072127;28;20070;-85
2023/05/15 11:30:14;;;;;;;17.75;8.55;;;588.80;2432.00;;;;;;5066110;28;20028;-85
2023/05/15 11:32:47;;;;;;;13.10;7.68;;;589.10;2432.00;;;;;;5076263;28;20028;-87
2023/05/15 11:35:46;;;;;;;17.13;7.78;;;589.10;2432.00;;;;;;5092827;28;20034;-86
2023/05/15 11:38:25;;;;;;;17.70;8.25;;;589.10;2432.00;;;;;;5066505;28;20044;-86
2023/05/15 11:40:57;;;;;;;12.18;7.38;;;589.30;2432.00;;;;;;5056820;28;20353;-85
2023/05/15 11:43:30;;;;;;;14.98;6.88;;;589.50;2432.00;;;;;;5062293;28;20123;-85
2023/05/15 11:45:58;;;;;;;10.75;5.93;;;589.50;2432.00;;;;;;5076605;28;20082;-86
2023/05/15 11:48:32;;;;;;;12.75;6.57;;;589.50;2432.00;;;;;;5075036;28;20047;-84
2023/05/15 11:50:59;;;;;;;14.23;6.90;;;589.20;2432.00;;;;;;5076704;28;20024;-85
2023/05/15 11:53:25;;;;;;;14.35;7.35;;;589.20;2432.00;;;;;;5074571;28;20074;-84
2023/05/15 11:55:53;;;;;;;12.75;6.18;;;589.40;2432.00;;;;;;5073100;28;20029;-82
2023/05/15 11:58:20;;;;;;;11.82;7.13;;;589.40;2432.00;;;;;;5072492;28;20028;-85
2023/05/15 12:00:47;;;;;;;14.95;7.97;;;589.40;2432.00;;;;;;5072486;28;20075;-86
2023/05/15 12:03:34;;;;;;;12.02;6.35;;;589.30;2432.00;;;;;;5055785;28;20048;-86
2023/05/15 12:06:01;;;;;;;17.30;6.90;;;589.20;2432.00;;;;;;5076454;28;20032;-86
2023/05/15 12:08:36;;;;;;;14.20;7.10;;;589.30;2432.00;;;;;;5075779;28;20118;-88
2023/05/15 12:11:04;;;;;;;15.02;6.78;;;589.30;2432.00;;;;;;5076280;28;20043;-89
2023/05/15 12:13:32;;;;;;;14.57;6.63;;;589.40;2432.00;;;;;;5067083;28;20078;-84
2023/05/15 12:16:00;;;;;;;17.17;7.20;;;589.30;2432.00;;;;;;5059374;28;20120;-85
2023/05/15 12:18:26;;;;;;;17.48;7.47;;;589.40;2432.00;;;;;;5068298;28;20491;-84
2023/05/15 12:20:53;;;;;;;21.63;7.20;;;589.40;2432.00;;;;;;5098098;28;20020;-86
2023/05/15 12:23:22;;;;;;;13.95;7.90;;;589.20;2432.00;;;;;;5086875;28;20028;-85
2023/05/15 12:25:51;;;;;;;16.73;7.18;;;589.20;2432.00;;;;;;5059384;28;20029;-84
2023/05/15 12:28:17;;;;;;;17.52;7.22;;;589.20;2432.00;;;;;;5060525;28;20029;-84
2023/05/15 12:30:43;;;;;;;15.45;7.00;;;589.30;2432.00;;;;;;5097339;28;20028;-84
2023/05/15 12:33:10;;;;;;;18.42;8.60;;;589.40;2432.00;;;;;;5078056;28;20456;-82
2023/05/15 12:35:40;;;;;;;16.30;8.10;;;589.50;2432.00;;;;;;5079164;28;20115;-84
2023/05/15 12:38:06;;;;;;;15.25;7.63;;;589.60;2432.00;;;;;;5081579;28;20047;-85
2023/05/15 12:40:38;;;;;;;17.58;8.13;;;589.50;2432.00;;;;;;5117741;28;20027;-84
2023/05/15 12:43:08;;;;;;;13.20;7.28;;;589.40;2432.00;;;;;;5096052;28;20032;-85
2023/05/15 12:45:36;;;;;;;13.93;7.35;;;589.30;2432.00;;;;;;5096259;28;20092;-86
2023/05/15 12:48:02;;;;;;;17.25;8.07;;;589.20;2432.00;;;;;;5113959;27;20363;-86